sensor_id;sensor_type;location;lat;lon;timestamp;pressure;altitude;pressure_sealevel;temperature;humidity
49585;BME280;35491;49.142;9.210;2023-01-15T00:00:52;98581.13;;;12.04;67.20
49585;BME280;35491;49.142;9.210;2023-01-15T00:03:25;98579.09;;;12.06;67.25
49585;BME280;35491;49.142;9.210;2023-01-15T00:04:44;98580.56;;;12.08;67.18
49585;BME280;35491;49.142;9.210;2023-01-15T00:06:13;98570.22;;;12.05;67.48
49585;BME280;35491;49.142;9.210;2023-01-15T00:07:40;98570.41;;;12.04;67.67
49585;BME280;35491;49.142;9.210;2023-01-15T00:13:28;98562.03;;;11.92;68.04
49585;BME280;35491;49.142;9.210;2023-01-15T00:14:32;98565.84;;;11.97;68.25
49585;BME280;35491;49.142;9.210;2023-01-15T00:15:33;98553.09;;;11.99;67.98
49585;BME280;35491;49.142;9.210;2023-01-15T00:16:37;98553.91;;;12.00;68.05
49585;BME280;35491;49.142;9.210;2023-01-15T00:17:40;98543.41;;;11.98;67.88
49585;BME280;35491;49.142;9.210;2023-01-15T00:18:48;98544.75;;;11.94;68.05
49585;BME280;35491;49.142;9.210;2023-01-15T00:19:49;98541.72;;;11.97;67.94
49585;BME280;35491;49.142;9.210;2023-01-15T00:20:57;98535.81;;;12.02;67.91
49585;BME280;35491;49.142;9.210;2023-01-15T00:21:58;98533.84;;;11.96;68.03
49585;BME280;35491;49.142;9.210;2023-01-15T00:23:02;98541.25;;;11.94;68.38
49585;BME280;35491;49.142;9.210;2023-01-15T00:24:03;98530.72;;;11.92;68.32
49585;BME280;35491;49.142;9.210;2023-01-15T00:25:19;98530.00;;;11.98;67.86
49585;BME280;35491;49.142;9.210;2023-01-15T00:26:36;98534.88;;;11.95;68.33
49585;BME280;35491;49.142;9.210;2023-01-15T00:27:52;98532.47;;;12.00;68.16
49585;BME280;35491;49.142;9.210;2023-01-15T00:28:59;98527.78;;;11.87;68.28
49585;BME280;35491;49.142;9.210;2023-01-15T00:30:00;98532.78;;;11.90;68.43
49585;BME280;35491;49.142;9.210;2023-01-15T00:31:04;98532.13;;;11.88;68.27
49585;BME280;35491;49.142;9.210;2023-01-15T00:32:06;98529.31;;;11.96;68.30
49585;BME280;35491;49.142;9.210;2023-01-15T00:33:10;98535.47;;;11.90;68.60
49585;BME280;35491;49.142;9.210;2023-01-15T00:34:11;98524.19;;;11.95;68.26
49585;BME280;35491;49.142;9.210;2023-01-15T00:35:16;98532.78;;;11.90;68.43
49585;BME280;35491;49.142;9.210;2023-01-15T00:36:17;98524.19;;;11.95;68.47
49585;BME280;35491;49.142;9.210;2023-01-15T00:37:21;98526.78;;;11.88;68.90
49585;BME280;35491;49.142;9.210;2023-01-15T00:38:22;98527.44;;;11.90;68.88
49585;BME280;35491;49.142;9.210;2023-01-15T00:39:25;98525.38;;;11.92;68.75
49585;BME280;35491;49.142;9.210;2023-01-15T00:40:26;98522.69;;;11.92;68.79
49585;BME280;35491;49.142;9.210;2023-01-15T00:41:30;98527.78;;;11.87;69.00
49585;BME280;35491;49.142;9.210;2023-01-15T00:42:31;98525.38;;;11.92;69.09
49585;BME280;35491;49.142;9.210;2023-01-15T00:43:35;98510.50;;;11.90;69.05
49585;BME280;35491;49.142;9.210;2023-01-15T00:44:39;98515.16;;;11.81;69.42
49585;BME280;35491;49.142;9.210;2023-01-15T00:45:43;98510.84;;;11.80;69.85
49585;BME280;35491;49.142;9.210;2023-01-15T00:46:44;98510.84;;;11.80;69.79
49585;BME280;35491;49.142;9.210;2023-01-15T00:51:28;98487.56;;;11.80;70.02
49585;BME280;35491;49.142;9.210;2023-01-15T00:53:01;98493.34;;;11.84;69.59
49585;BME280;35491;49.142;9.210;2023-01-15T00:57:56;98482.00;;;11.82;70.11
49585;BME280;35491;49.142;9.210;2023-01-15T00:59:48;98487.13;;;11.77;70.12
49585;BME280;35491;49.142;9.210;2023-01-15T01:01:26;98490.25;;;11.80;69.92
49585;BME280;35491;49.142;9.210;2023-01-15T01:02:52;98488.13;;;11.76;70.11
49585;BME280;35491;49.142;9.210;2023-01-15T01:04:23;98479.22;;;11.90;69.34
49585;BME280;35491;49.142;9.210;2023-01-15T01:07:43;98477.59;;;11.96;69.44
49585;BME280;35491;49.142;9.210;2023-01-15T01:11:24;98468.09;;;11.93;69.09
49585;BME280;35491;49.142;9.210;2023-01-15T01:12:48;98475.50;;;11.91;69.18
49585;BME280;35491;49.142;9.210;2023-01-15T01:14:28;98475.78;;;11.96;68.92
49585;BME280;35491;49.142;9.210;2023-01-15T01:16:04;98460.06;;;11.93;68.93
49585;BME280;35491;49.142;9.210;2023-01-15T01:17:39;98469.56;;;11.96;68.77
49585;BME280;35491;49.142;9.210;2023-01-15T01:19:03;98469.13;;;11.92;68.79
49585;BME280;35491;49.142;9.210;2023-01-15T01:21:05;98474.00;;;12.04;68.30
49585;BME280;35491;49.142;9.210;2023-01-15T01:23:47;98466.22;;;12.09;68.26
49585;BME280;35491;49.142;9.210;2023-01-15T01:25:27;98467.88;;;12.10;67.96
49585;BME280;35491;49.142;9.210;2023-01-15T01:35:30;98462.13;;;12.13;68.03
49585;BME280;35491;49.142;9.210;2023-01-15T01:36:36;98455.13;;;12.12;68.14
49585;BME280;35491;49.142;9.210;2023-01-15T01:37:38;98457.41;;;12.15;68.20
49585;BME280;35491;49.142;9.210;2023-01-15T01:39:53;98455.06;;;12.05;68.47
49585;BME280;35491;49.142;9.210;2023-01-15T01:40:57;98459.44;;;12.13;68.42
49585;BME280;35491;49.142;9.210;2023-01-15T01:41:58;98447.72;;;12.14;67.92
49585;BME280;35491;49.142;9.210;2023-01-15T01:43:02;98450.78;;;12.11;68.40
49585;BME280;35491;49.142;9.210;2023-01-15T01:44:04;98451.03;;;12.16;67.93
49585;BME280;35491;49.142;9.210;2023-01-15T01:45:12;98453.00;;;12.07;68.25
49585;BME280;35491;49.142;9.210;2023-01-15T01:46:17;98453.22;;;12.06;68.13
49585;BME280;35491;49.142;9.210;2023-01-15T01:47:22;98451.41;;;12.13;67.99
49585;BME280;35491;49.142;9.210;2023-01-15T01:48:25;98447.06;;;12.12;68.10
49585;BME280;35491;49.142;9.210;2023-01-15T01:49:31;98442.72;;;12.04;68.36
49585;BME280;35491;49.142;9.210;2023-01-15T01:50:36;98444.22;;;12.13;68.20
49585;BME280;35491;49.142;9.210;2023-01-15T01:51:42;98439.09;;;12.19;68.05
49585;BME280;35491;49.142;9.210;2023-01-15T01:52:46;98441.78;;;12.19;68.14
49585;BME280;35491;49.142;9.210;2023-01-15T01:53:51;98440.97;;;12.18;68.24
49585;BME280;35491;49.142;9.210;2023-01-15T01:54:52;98440.13;;;12.17;67.78
49585;BME280;35491;49.142;9.210;2023-01-15T01:55:56;98432.28;;;12.16;68.29
49585;BME280;35491;49.142;9.210;2023-01-15T01:56:58;98434.53;;;12.12;68.26
49585;BME280;35491;49.142;9.210;2023-01-15T01:58:03;98437.78;;;12.08;68.29
49585;BME280;35491;49.142;9.210;2023-01-15T01:59:04;98445.19;;;12.06;68.33
49585;BME280;35491;49.142;9.210;2023-01-15T02:00:10;98439.44;;;12.09;68.19
49585;BME280;35491;49.142;9.210;2023-01-15T02:01:12;98432.28;;;12.16;68.23
49585;BME280;35491;49.142;9.210;2023-01-15T02:02:16;98434.13;;;12.15;67.92
49585;BME280;35491;49.142;9.210;2023-01-15T02:03:20;98435.34;;;12.13;68.26
49585;BME280;35491;49.142;9.210;2023-01-15T02:04:26;98432.88;;;12.11;68.12
49585;BME280;35491;49.142;9.210;2023-01-15T02:05:30;98434.69;;;12.11;68.35
49585;BME280;35491;49.142;9.210;2023-01-15T02:06:37;98433.88;;;12.10;68.19
49585;BME280;35491;49.142;9.210;2023-01-15T02:07:39;98431.66;;;12.14;68.21
49585;BME280;35491;49.142;9.210;2023-01-15T02:08:43;98425.50;;;12.20;68.11
49585;BME280;35491;49.142;9.210;2023-01-15T02:09:47;98431.28;;;12.17;68.39
49585;BME280;35491;49.142;9.210;2023-01-15T02:10:49;98424.25;;;12.16;68.09
49585;BME280;35491;49.142;9.210;2023-01-15T02:11:55;98424.63;;;12.13;67.95
49585;BME280;35491;49.142;9.210;2023-01-15T02:12:59;98427.09;;;12.14;68.21
49585;BME280;35491;49.142;9.210;2023-01-15T02:14:07;98423.84;;;12.19;68.30
49585;BME280;35491;49.142;9.210;2023-01-15T02:15:11;98423.63;;;12.14;68.43
49585;BME280;35491;49.142;9.210;2023-01-15T02:16:17;98427.31;;;12.13;68.52
49585;BME280;35491;49.142;9.210;2023-01-15T02:17:22;98420.34;;;12.19;68.52
49585;BME280;35491;49.142;9.210;2023-01-15T02:18:28;98423.03;;;12.19;68.40
49585;BME280;35491;49.142;9.210;2023-01-15T02:19:33;98419.91;;;12.15;68.34
49585;BME280;35491;49.142;9.210;2023-01-15T02:20:43;98420.16;;;12.20;68.37
49585;BME280;35491;49.142;9.210;2023-01-15T02:21:54;98423.03;;;12.19;68.17
49585;BME280;35491;49.142;9.210;2023-01-15T02:23:09;98404.84;;;12.14;68.35
49585;BME280;35491;49.142;9.210;2023-01-15T02:24:16;98418.09;;;12.22;68.27
49585;BME280;35491;49.142;9.210;2023-01-15T02:25:23;98408.41;;;12.21;68.02
49585;BME280;35491;49.142;9.210;2023-01-15T02:26:45;98412.31;;;12.19;68.28
49585;BME280;35491;49.142;9.210;2023-01-15T02:27:51;98408.03;;;12.24;68.06
49585;BME280;35491;49.142;9.210;2023-01-15T02:28:57;98406.53;;;12.15;68.31
49585;BME280;35491;49.142;9.210;2023-01-15T02:30:00;98412.31;;;12.19;68.29
49585;BME280;35491;49.142;9.210;2023-01-15T02:31:08;98412.31;;;12.19;67.92
49585;BME280;35491;49.142;9.210;2023-01-15T02:32:12;98413.38;;;12.24;68.27
49585;BME280;35491;49.142;9.210;2023-01-15T02:33:17;98398.72;;;12.20;68.22
49585;BME280;35491;49.142;9.210;2023-01-15T02:34:20;98403.47;;;12.25;68.00
49585;BME280;35491;49.142;9.210;2023-01-15T02:35:27;98400.56;;;12.20;68.36
49585;BME280;35491;49.142;9.210;2023-01-15T02:36:30;98407.53;;;12.14;68.51
49585;BME280;35491;49.142;9.210;2023-01-15T02:37:36;98395.00;;;12.21;68.20
49585;BME280;35491;49.142;9.210;2023-01-15T02:42:16;98408.19;;;12.16;68.67
49585;BME280;35491;49.142;9.210;2023-01-15T02:43:21;98390.09;;;12.25;68.81
49585;BME280;35491;49.142;9.210;2023-01-15T02:44:23;98397.50;;;12.23;68.88
49585;BME280;35491;49.142;9.210;2023-01-15T02:45:30;98402.88;;;12.23;68.82
49585;BME280;35491;49.142;9.210;2023-01-15T02:46:35;98409.00;;;12.16;68.75
49585;BME280;35491;49.142;9.210;2023-01-15T02:47:39;98399.34;;;12.22;68.63
49585;BME280;35491;49.142;9.210;2023-01-15T02:48:46;98396.03;;;12.20;68.61
49585;BME280;35491;49.142;9.210;2023-01-15T02:49:50;98405.56;;;12.23;68.50
49585;BME280;35491;49.142;9.210;2023-01-15T02:50:56;98406.13;;;12.18;68.26
49585;BME280;35491;49.142;9.210;2023-01-15T02:51:59;98400.56;;;12.20;68.53
49585;BME280;35491;49.142;9.210;2023-01-15T02:53:06;98402.03;;;12.22;68.37
49585;BME280;35491;49.142;9.210;2023-01-15T02:54:09;98403.47;;;12.18;68.52
49585;BME280;35491;49.142;9.210;2023-01-15T02:55:15;98396.66;;;12.22;68.71
49585;BME280;35491;49.142;9.210;2023-01-15T02:56:18;98400.41;;;12.28;68.50
49585;BME280;35491;49.142;9.210;2023-01-15T02:57:26;98411.94;;;12.22;68.73
49585;BME280;35491;49.142;9.210;2023-01-15T02:58:30;98392.19;;;12.29;68.63
49585;BME280;35491;49.142;9.210;2023-01-15T02:59:37;98386.88;;;12.36;68.48
49585;BME280;35491;49.142;9.210;2023-01-15T03:00:40;98403.69;;;12.23;68.56
49585;BME280;35491;49.142;9.210;2023-01-15T03:01:46;98396.94;;;12.27;68.56
49585;BME280;35491;49.142;9.210;2023-01-15T03:02:50;98388.09;;;12.33;68.60
49585;BME280;35491;49.142;9.210;2023-01-15T03:03:58;98389.28;;;12.24;68.91
49585;BME280;35491;49.142;9.210;2023-01-15T03:05:00;98385.97;;;12.22;68.94
49585;BME280;35491;49.142;9.210;2023-01-15T03:06:06;98393.34;;;12.20;68.88
49585;BME280;35491;49.142;9.210;2023-01-15T03:07:10;98396.25;;;12.19;69.11
49585;BME280;35491;49.142;9.210;2023-01-15T03:08:16;98381.44;;;12.23;68.98
49585;BME280;35491;49.142;9.210;2023-01-15T03:09:17;98379.81;;;12.28;69.18
49585;BME280;35491;49.142;9.210;2023-01-15T03:10:21;98381.47;;;12.29;68.91
49585;BME280;35491;49.142;9.210;2023-01-15T03:11:27;98386.59;;;12.24;69.03
49585;BME280;35491;49.142;9.210;2023-01-15T03:12:36;98381.28;;;12.31;68.99
49585;BME280;35491;49.142;9.210;2023-01-15T03:14:02;98384.34;;;12.28;69.27
49585;BME280;35491;49.142;9.210;2023-01-15T03:15:08;98373.63;;;12.28;69.27
49585;BME280;35491;49.142;9.210;2023-01-15T03:16:12;98370.34;;;12.32;69.10
49585;BME280;35491;49.142;9.210;2023-01-15T03:17:31;98374.22;;;12.23;68.98
49585;BME280;35491;49.142;9.210;2023-01-15T03:18:39;98369.50;;;12.25;69.31
49585;BME280;35491;49.142;9.210;2023-01-15T03:19:43;98368.66;;;12.25;69.22
49585;BME280;35491;49.142;9.210;2023-01-15T03:20:49;98369.50;;;12.25;69.05
49585;BME280;35491;49.142;9.210;2023-01-15T03:21:53;98373.00;;;12.26;69.30
49585;BME280;35491;49.142;9.210;2023-01-15T03:22:59;98368.88;;;12.23;69.00
49585;BME280;35491;49.142;9.210;2023-01-15T03:24:04;98363.72;;;12.28;68.96
49585;BME280;35491;49.142;9.210;2023-01-15T03:25:10;98370.75;;;12.29;69.00
49585;BME280;35491;49.142;9.210;2023-01-15T03:26:13;98364.97;;;12.26;69.39
49585;BME280;35491;49.142;9.210;2023-01-15T03:27:17;98356.53;;;12.29;69.40
49585;BME280;35491;49.142;9.210;2023-01-15T03:33:34;98358.38;;;12.28;69.38
49585;BME280;35491;49.142;9.210;2023-01-15T03:34:59;98345.38;;;12.25;69.75
49585;BME280;35491;49.142;9.210;2023-01-15T03:36:23;98348.25;;;12.24;69.56
49585;BME280;35491;49.142;9.210;2023-01-15T03:37:45;98345.22;;;12.33;69.32
49585;BME280;35491;49.142;9.210;2023-01-15T03:39:20;98349.56;;;12.35;69.12
49585;BME280;35491;49.142;9.210;2023-01-15T03:41:01;98353.47;;;12.39;69.16
49585;BME280;35491;49.142;9.210;2023-01-15T03:43:48;98350.16;;;12.30;69.32
49585;BME280;35491;49.142;9.210;2023-01-15T03:45:02;98339.03;;;12.33;69.39
49585;BME280;35491;49.142;9.210;2023-01-15T03:48:08;98336.59;;;12.38;69.17
49585;BME280;35491;49.142;9.210;2023-01-15T03:49:36;98348.50;;;12.29;69.47
49585;BME280;35491;49.142;9.210;2023-01-15T03:51:12;98342.16;;;12.37;69.44
49585;BME280;35491;49.142;9.210;2023-01-15T03:53:04;98341.09;;;12.38;69.02
49585;BME280;35491;49.142;9.210;2023-01-15T03:54:14;98347.66;;;12.28;69.66
49585;BME280;35491;49.142;9.210;2023-01-15T03:55:55;98336.56;;;12.31;69.02
49585;BME280;35491;49.142;9.210;2023-01-15T03:57:13;98340.88;;;12.32;69.64
49585;BME280;35491;49.142;9.210;2023-01-15T03:58:16;98346.47;;;12.38;69.37
49585;BME280;35491;49.142;9.210;2023-01-15T03:59:22;98339.47;;;12.37;69.06
49585;BME280;35491;49.142;9.210;2023-01-15T04:00:25;98337.19;;;12.33;69.22
49585;BME280;35491;49.142;9.210;2023-01-15T04:01:31;98328.34;;;12.40;69.22
49585;BME280;35491;49.142;9.210;2023-01-15T04:02:34;98325.66;;;12.40;69.77
49585;BME280;35491;49.142;9.210;2023-01-15T04:03:39;98321.75;;;12.42;69.81
49585;BME280;35491;49.142;9.210;2023-01-15T04:04:42;98315.97;;;12.39;70.01
49585;BME280;35491;49.142;9.210;2023-01-15T04:05:47;98321.53;;;12.37;69.92
49585;BME280;35491;49.142;9.210;2023-01-15T04:06:49;98311.63;;;12.38;70.02
49585;BME280;35491;49.142;9.210;2023-01-15T04:11:24;98315.28;;;12.23;70.98
49585;BME280;35491;49.142;9.210;2023-01-15T04:12:30;98307.28;;;12.30;70.52
49585;BME280;35491;49.142;9.210;2023-01-15T04:13:32;98310.16;;;12.28;70.90
49585;BME280;35491;49.142;9.210;2023-01-15T04:14:36;98309.06;;;12.16;70.93
49585;BME280;35491;49.142;9.210;2023-01-15T04:15:37;98311.78;;;12.23;70.90
49585;BME280;35491;49.142;9.210;2023-01-15T04:16:41;98309.28;;;12.21;71.01
49585;BME280;35491;49.142;9.210;2023-01-15T04:17:42;98314.47;;;12.29;70.80
49585;BME280;35491;49.142;9.210;2023-01-15T04:18:46;98324.53;;;12.21;70.65
49585;BME280;35491;49.142;9.210;2023-01-15T04:19:49;98311.34;;;12.19;70.85
49585;BME280;35491;49.142;9.210;2023-01-15T04:20:53;98316.31;;;12.22;70.91
49585;BME280;35491;49.142;9.210;2023-01-15T04:21:55;98309.28;;;12.21;70.36
49585;BME280;35491;49.142;9.210;2023-01-15T04:22:59;98303.97;;;12.28;70.44
49585;BME280;35491;49.142;9.210;2023-01-15T04:24:00;98311.41;;;12.32;70.13
49585;BME280;35491;49.142;9.210;2023-01-15T04:25:04;98298.56;;;12.21;70.26
49585;BME280;35491;49.142;9.210;2023-01-15T04:26:05;98301.88;;;12.23;69.76
49585;BME280;35491;49.142;9.210;2023-01-15T04:27:10;98310.94;;;12.22;69.74
49585;BME280;35491;49.142;9.210;2023-01-15T04:33:00;98357.28;;;12.51;68.50
49585;BME280;35491;49.142;9.210;2023-01-15T04:43:47;98405.38;;;11.16;82.45
49585;BME280;35491;49.142;9.210;2023-01-15T04:45:13;98414.06;;;11.03;83.66
49585;BME280;35491;49.142;9.210;2023-01-15T04:46:20;98413.53;;;10.92;84.00
49585;BME280;35491;49.142;9.210;2023-01-15T04:47:21;98420.84;;;10.84;84.22
49585;BME280;35491;49.142;9.210;2023-01-15T04:48:25;98431.00;;;10.73;84.10
49585;BME280;35491;49.142;9.210;2023-01-15T04:49:29;98439.75;;;10.67;83.33
49585;BME280;35491;49.142;9.210;2023-01-15T04:50:33;98435.97;;;10.47;82.02
49585;BME280;35491;49.142;9.210;2023-01-15T04:53:13;98451.66;;;10.26;80.36
49585;BME280;35491;49.142;9.210;2023-01-15T04:54:29;98458.19;;;10.24;80.59
49585;BME280;35491;49.142;9.210;2023-01-15T04:55:33;98470.25;;;10.20;80.63
49585;BME280;35491;49.142;9.210;2023-01-15T04:56:37;98460.19;;;10.22;80.19
49585;BME280;35491;49.142;9.210;2023-01-15T04:57:41;98459.56;;;10.20;79.80
49585;BME280;35491;49.142;9.210;2023-01-15T04:58:45;98470.69;;;10.08;80.25
49585;BME280;35491;49.142;9.210;2023-01-15T04:59:49;98457.03;;;10.03;80.07
49585;BME280;35491;49.142;9.210;2023-01-15T05:00:50;98469.03;;;10.07;79.66
49585;BME280;35491;49.142;9.210;2023-01-15T05:01:54;98469.97;;;9.91;80.72
49585;BME280;35491;49.142;9.210;2023-01-15T05:03:02;98470.44;;;9.95;80.41
49585;BME280;35491;49.142;9.210;2023-01-15T05:04:07;98474.13;;;9.94;80.49
49585;BME280;35491;49.142;9.210;2023-01-15T05:05:11;98464.91;;;9.81;81.06
49585;BME280;35491;49.142;9.210;2023-01-15T05:06:12;98468.38;;;9.82;81.06
49585;BME280;35491;49.142;9.210;2023-01-15T05:07:18;98472.91;;;9.81;81.31
49585;BME280;35491;49.142;9.210;2023-01-15T05:10:00;98487.13;;;9.50;81.80
49585;BME280;35491;49.142;9.210;2023-01-15T05:12:39;98497.56;;;9.29;82.73
49585;BME280;35491;49.142;9.210;2023-01-15T05:15:14;98491.44;;;9.51;81.80
49585;BME280;35491;49.142;9.210;2023-01-15T05:17:42;98503.66;;;9.46;81.52
49585;BME280;35491;49.142;9.210;2023-01-15T05:18:50;98507.78;;;9.48;81.54
49585;BME280;35491;49.142;9.210;2023-01-15T05:19:55;98503.94;;;9.51;81.66
49585;BME280;35491;49.142;9.210;2023-01-15T05:30:39;98542.13;;;9.51;82.21
49585;BME280;35491;49.142;9.210;2023-01-15T05:31:43;98540.81;;;9.47;82.22
49585;BME280;35491;49.142;9.210;2023-01-15T05:35:49;98562.94;;;9.25;83.03
49585;BME280;35491;49.142;9.210;2023-01-15T06:33:03;98617.31;;;8.41;86.81
49585;BME280;35491;49.142;9.210;2023-01-15T06:34:04;98614.31;;;8.27;87.86
49585;BME280;35491;49.142;9.210;2023-01-15T07:08:18;98734.19;;;7.32;83.21
49585;BME280;35491;49.142;9.210;2023-01-15T07:18:41;98761.88;;;7.03;82.60
49585;BME280;35491;49.142;9.210;2023-01-15T07:19:45;98764.53;;;7.03;81.64
49585;BME280;35491;49.142;9.210;2023-01-15T07:20:46;98762.47;;;7.15;81.75
49585;BME280;35491;49.142;9.210;2023-01-15T07:21:50;98759.69;;;7.25;81.06
49585;BME280;35491;49.142;9.210;2023-01-15T07:22:51;98764.13;;;7.16;80.87
49585;BME280;35491;49.142;9.210;2023-01-15T07:24:00;98765.81;;;7.17;80.72
49585;BME280;35491;49.142;9.210;2023-01-15T07:25:01;98764.88;;;7.26;80.49
49585;BME280;35491;49.142;9.210;2023-01-15T07:26:05;98763.97;;;7.17;80.10
49585;BME280;35491;49.142;9.210;2023-01-15T07:27:06;98776.34;;;7.09;79.62
49585;BME280;35491;49.142;9.210;2023-01-15T07:28:11;98779.47;;;7.04;79.60
49585;BME280;35491;49.142;9.210;2023-01-15T07:29:12;98769.16;;;7.01;79.88
49585;BME280;35491;49.142;9.210;2023-01-15T07:30:16;98773.78;;;6.99;80.13
49585;BME280;35491;49.142;9.210;2023-01-15T07:31:18;98768.13;;;6.94;79.02
49585;BME280;35491;49.142;9.210;2023-01-15T07:32:24;98766.28;;;6.94;79.73
49585;BME280;35491;49.142;9.210;2023-01-15T07:33:25;98772.34;;;7.05;79.77
49585;BME280;35491;49.142;9.210;2023-01-15T07:34:29;98779.41;;;6.96;79.43
49585;BME280;35491;49.142;9.210;2023-01-15T07:35:34;98783.19;;;6.93;79.37
49585;BME280;35491;49.142;9.210;2023-01-15T07:36:36;98779.25;;;6.97;79.60
49585;BME280;35491;49.142;9.210;2023-01-15T07:37:40;98778.66;;;7.03;79.60
49585;BME280;35491;49.142;9.210;2023-01-15T07:38:45;98772.88;;;6.90;79.19
49585;BME280;35491;49.142;9.210;2023-01-15T07:39:52;98785.78;;;7.03;79.55
49585;BME280;35491;49.142;9.210;2023-01-15T07:40:54;98768.78;;;6.96;79.21
49585;BME280;35491;49.142;9.210;2023-01-15T07:42:10;98781.22;;;6.95;78.78
49585;BME280;35491;49.142;9.210;2023-01-15T07:43:26;98771.59;;;6.94;79.08
49585;BME280;35491;49.142;9.210;2023-01-15T07:44:43;98775.69;;;7.07;79.66
49585;BME280;35491;49.142;9.210;2023-01-15T07:46:01;98786.97;;;7.09;79.39
49585;BME280;35491;49.142;9.210;2023-01-15T07:47:17;98788.66;;;7.10;79.11
49585;BME280;35491;49.142;9.210;2023-01-15T07:48:34;98786.38;;;7.15;79.36
49585;BME280;35491;49.142;9.210;2023-01-15T07:49:50;98789.09;;;7.05;78.53
49585;BME280;35491;49.142;9.210;2023-01-15T07:50:57;98785.94;;;7.01;78.44
49585;BME280;35491;49.142;9.210;2023-01-15T07:52:19;98791.00;;;6.95;78.32
49585;BME280;35491;49.142;9.210;2023-01-15T07:53:47;98786.06;;;7.18;78.40
49585;BME280;35491;49.142;9.210;2023-01-15T07:55:08;98791.69;;;7.15;78.44
49585;BME280;35491;49.142;9.210;2023-01-15T07:56:22;98788.06;;;7.16;78.34
49585;BME280;35491;49.142;9.210;2023-01-15T07:57:32;98802.00;;;7.18;78.43
49585;BME280;35491;49.142;9.210;2023-01-15T07:58:33;98801.66;;;7.13;79.00
49585;BME280;35491;49.142;9.210;2023-01-15T07:59:37;98813.03;;;7.05;77.93
49585;BME280;35491;49.142;9.210;2023-01-15T08:00:39;98820.16;;;7.23;78.49
49585;BME280;35491;49.142;9.210;2023-01-15T08:01:43;98822.09;;;7.12;78.27
49585;BME280;35491;49.142;9.210;2023-01-15T08:02:44;98813.38;;;7.28;77.95
49585;BME280;35491;49.142;9.210;2023-01-15T08:03:50;98826.78;;;7.18;77.53
49585;BME280;35491;49.142;9.210;2023-01-15T08:04:51;98820.94;;;7.15;77.26
49585;BME280;35491;49.142;9.210;2023-01-15T08:05:55;98814.94;;;7.13;77.17
49585;BME280;35491;49.142;9.210;2023-01-15T08:06:58;98822.81;;;7.23;77.30
49585;BME280;35491;49.142;9.210;2023-01-15T08:08:03;98824.03;;;7.28;77.27
49585;BME280;35491;49.142;9.210;2023-01-15T08:09:37;98824.72;;;7.30;76.63
49585;BME280;35491;49.142;9.210;2023-01-15T08:35:21;98869.72;;;6.78;78.75
49585;BME280;35491;49.142;9.210;2023-01-15T08:37:57;98861.69;;;6.87;78.08
49585;BME280;35491;49.142;9.210;2023-01-15T08:40:44;98874.41;;;6.66;77.68
49585;BME280;35491;49.142;9.210;2023-01-15T08:42:01;98879.59;;;6.85;77.75
49585;BME280;35491;49.142;9.210;2023-01-15T08:43:15;98881.13;;;6.88;77.75
49585;BME280;35491;49.142;9.210;2023-01-15T08:44:27;98875.34;;;6.75;77.51
49585;BME280;35491;49.142;9.210;2023-01-15T09:23:49;98949.56;;;6.38;77.40
49585;BME280;35491;49.142;9.210;2023-01-15T09:24:56;98960.59;;;6.44;77.54
49585;BME280;35491;49.142;9.210;2023-01-15T09:26:01;98948.44;;;6.41;77.94
49585;BME280;35491;49.142;9.210;2023-01-15T09:34:09;98965.94;;;6.34;77.73
49585;BME280;35491;49.142;9.210;2023-01-15T09:35:16;98959.06;;;6.41;78.04
49585;BME280;35491;49.142;9.210;2023-01-15T09:36:21;98977.78;;;6.39;78.22
49585;BME280;35491;49.142;9.210;2023-01-15T09:37:25;98974.28;;;6.49;78.00
49585;BME280;35491;49.142;9.210;2023-01-15T09:38:27;98974.16;;;6.40;78.38
49585;BME280;35491;49.142;9.210;2023-01-15T09:39:36;98987.19;;;6.24;78.02
49585;BME280;35491;49.142;9.210;2023-01-15T09:40:44;98983.00;;;6.21;78.04
49585;BME280;35491;49.142;9.210;2023-01-15T09:41:52;99001.31;;;6.15;77.80
49585;BME280;35491;49.142;9.210;2023-01-15T09:43:07;98994.34;;;6.14;78.61
49585;BME280;35491;49.142;9.210;2023-01-15T09:44:19;98999.78;;;6.12;78.09
49585;BME280;35491;49.142;9.210;2023-01-15T09:45:24;98994.63;;;6.11;78.55
49585;BME280;35491;49.142;9.210;2023-01-15T09:46:30;99010.38;;;6.12;78.22
49585;BME280;35491;49.142;9.210;2023-01-15T09:48:00;99004.09;;;6.23;78.45
49585;BME280;35491;49.142;9.210;2023-01-15T09:49:10;99010.66;;;6.19;78.44
49585;BME280;35491;49.142;9.210;2023-01-15T16:25:23;99171.56;;;6.10;63.03
49585;BME280;35491;49.142;9.210;2023-01-15T18:25:25;99113.47;;;5.56;61.23
49585;BME280;35491;49.142;9.210;2023-01-15T18:28:16;99117.66;;;5.49;60.96
49585;BME280;35491;49.142;9.210;2023-01-15T18:29:20;99109.03;;;5.57;60.92
49585;BME280;35491;49.142;9.210;2023-01-15T18:30:59;99109.31;;;5.54;60.95
49585;BME280;35491;49.142;9.210;2023-01-15T19:33:57;99106.19;;;5.49;62.19
49585;BME280;35491;49.142;9.210;2023-01-15T19:35:04;99105.38;;;5.58;61.91
49585;BME280;35491;49.142;9.210;2023-01-15T19:36:06;99101.19;;;5.55;61.78
49585;BME280;35491;49.142;9.210;2023-01-15T19:37:09;99105.22;;;5.50;62.07
49585;BME280;35491;49.142;9.210;2023-01-15T19:38:13;99110.78;;;5.37;62.22
49585;BME280;35491;49.142;9.210;2023-01-15T19:39:17;99099.91;;;5.40;62.32
49585;BME280;35491;49.142;9.210;2023-01-15T19:40:18;99099.19;;;5.28;62.76
49585;BME280;35491;49.142;9.210;2023-01-15T19:41:23;99093.59;;;5.31;62.69
49585;BME280;35491;49.142;9.210;2023-01-15T19:42:39;99093.59;;;5.31;62.67
49585;BME280;35491;49.142;9.210;2023-01-15T19:43:55;99084.56;;;5.43;62.25
49585;BME280;35491;49.142;9.210;2023-01-15T19:45:12;99087.38;;;5.42;62.21
49585;BME280;35491;49.142;9.210;2023-01-15T19:46:28;99088.75;;;5.46;62.24
49585;BME280;35491;49.142;9.210;2023-01-15T19:47:44;99080.78;;;5.36;62.47
49585;BME280;35491;49.142;9.210;2023-01-15T19:49:04;99079.69;;;5.39;62.41
49585;BME280;35491;49.142;9.210;2023-01-15T19:50:21;99077.00;;;5.29;62.48
49585;BME280;35491;49.142;9.210;2023-01-15T19:51:25;99083.00;;;5.31;62.58
49585;BME280;35491;49.142;9.210;2023-01-15T19:52:50;99079.13;;;5.35;62.74
49585;BME280;35491;49.142;9.210;2023-01-15T19:53:51;99070.59;;;5.41;62.34
49585;BME280;35491;49.142;9.210;2023-01-15T19:54:55;99071.31;;;5.43;62.42